createdAt,value
2023-04-19T00:00:02.787Z,8.41
2023-04-19T00:01:02.784Z,8.37
2023-04-19T00:02:02.908Z,8.41
2023-04-19T00:03:02.934Z,8.41
2023-04-19T00:04:02.966Z,8.41
2023-04-19T00:05:03.009Z,8.42
2023-04-19T00:06:02.768Z,8.42
2023-04-19T00:07:02.774Z,8.44
2023-04-19T00:08:02.715Z,8.41
2023-04-19T00:09:02.690Z,8.34
2023-04-19T00:10:02.672Z,8.31
2023-04-19T00:11:02.657Z,8.27
2023-04-19T00:12:02.679Z,8.27
2023-04-19T00:13:02.637Z,8.30
2023-04-19T00:14:02.651Z,8.33
2023-04-19T00:15:02.624Z,8.34
2023-04-19T00:16:02.611Z,8.30
2023-04-19T00:17:02.675Z,8.27
2023-04-19T00:18:02.603Z,8.27
2023-04-19T00:19:02.578Z,8.28
2023-04-19T00:20:02.549Z,8.27
2023-04-19T00:21:02.546Z,8.31
2023-04-19T00:22:02.567Z,8.28
2023-04-19T00:23:02.520Z,8.24
2023-04-19T00:24:02.518Z,8.23
2023-04-19T00:25:02.502Z,8.18
2023-04-19T00:26:02.489Z,8.19
2023-04-19T00:27:02.538Z,8.16
2023-04-19T00:28:02.472Z,8.13
2023-04-19T00:29:02.454Z,8.13
2023-04-19T00:30:02.459Z,8.12
2023-04-19T00:31:02.481Z,8.10
2023-04-19T00:32:02.459Z,8.09
2023-04-19T00:33:02.505Z,8.08
2023-04-19T00:34:02.408Z,8.08
2023-04-19T00:35:02.375Z,8.08
2023-04-19T00:36:02.391Z,8.09
2023-04-19T00:37:02.415Z,8.08
2023-04-19T00:38:02.353Z,8.12
2023-04-19T00:39:02.355Z,8.12
2023-04-19T00:40:02.347Z,8.12
2023-04-19T00:41:02.345Z,8.09
2023-04-19T00:42:02.323Z,8.13
2023-04-19T00:43:02.341Z,8.09
2023-04-19T00:44:02.292Z,8.08
2023-04-19T00:45:02.267Z,8.08
2023-04-19T00:46:02.329Z,8.05
2023-04-19T00:47:02.265Z,8.03
2023-04-19T00:48:02.404Z,8.00
2023-04-19T00:49:02.239Z,7.98
2023-04-19T00:50:02.233Z,7.97
2023-04-19T00:51:02.224Z,7.93
2023-04-19T00:52:02.294Z,7.93
2023-04-19T00:53:02.245Z,7.93
2023-04-19T00:54:02.232Z,7.98
2023-04-19T00:55:02.149Z,7.97
2023-04-19T00:56:02.213Z,7.97
2023-04-19T00:57:02.131Z,7.94
2023-04-19T00:58:02.164Z,7.91
2023-04-19T00:59:02.124Z,7.91
2023-04-19T01:00:02.130Z,7.88
2023-04-19T01:01:02.191Z,7.83
2023-04-19T01:02:02.279Z,7.83
2023-04-19T01:03:02.220Z,7.80
2023-04-19T01:04:02.275Z,7.80
2023-04-19T01:05:02.066Z,7.82
2023-04-19T01:06:02.055Z,7.83
2023-04-19T01:07:02.049Z,7.87
2023-04-19T01:08:02.089Z,7.88
2023-04-19T01:09:02.000Z,7.88
2023-04-19T01:10:02.113Z,7.88
2023-04-19T01:11:01.989Z,7.90
2023-04-19T01:12:01.980Z,7.90
2023-04-19T01:13:02.002Z,7.91
2023-04-19T01:14:01.957Z,7.95
2023-04-19T01:15:02.016Z,7.98
2023-04-19T01:16:01.975Z,7.97
2023-04-19T01:17:01.922Z,7.94
2023-04-19T01:18:01.996Z,7.93
2023-04-19T01:19:01.878Z,7.91
2023-04-19T01:20:01.973Z,7.88
2023-04-19T01:21:01.874Z,7.90
2023-04-19T01:22:01.853Z,7.93
2023-04-19T01:23:01.886Z,7.97
2023-04-19T01:24:01.831Z,7.98
2023-04-19T01:25:01.846Z,7.97
2023-04-19T01:26:01.813Z,7.97
2023-04-19T01:27:01.809Z,7.94
2023-04-19T01:28:01.826Z,7.93
2023-04-19T01:29:01.770Z,7.91
2023-04-19T01:30:01.842Z,7.90
2023-04-19T01:31:01.802Z,7.87
2023-04-19T01:32:01.748Z,7.88
2023-04-19T01:33:01.845Z,7.85
2023-04-19T01:34:01.805Z,7.83
2023-04-19T01:35:01.707Z,7.85
2023-04-19T01:36:01.714Z,7.87
2023-04-19T01:37:01.680Z,7.88
2023-04-19T01:38:01.731Z,7.90
2023-04-19T01:39:01.693Z,7.91
2023-04-19T01:40:01.661Z,7.93
2023-04-19T01:41:01.655Z,7.91
2023-04-19T01:42:01.654Z,7.93
2023-04-19T01:43:01.666Z,7.93
2023-04-19T01:44:01.642Z,7.93
2023-04-19T01:45:01.605Z,7.88
2023-04-19T01:46:01.598Z,7.90
2023-04-19T01:47:01.610Z,7.90
2023-04-19T01:48:01.648Z,7.88
2023-04-19T01:49:01.592Z,7.87
2023-04-19T01:50:01.545Z,7.85
2023-04-19T01:51:01.553Z,7.85
2023-04-19T01:52:01.555Z,7.85
2023-04-19T01:53:01.601Z,7.83
2023-04-19T01:54:01.503Z,7.83
2023-04-19T01:55:01.508Z,7.83
2023-04-19T01:56:01.483Z,7.80
2023-04-19T01:57:01.477Z,7.80
2023-04-19T01:58:01.515Z,7.77
2023-04-19T01:59:01.459Z,7.73
2023-04-19T02:00:01.484Z,7.73
2023-04-19T02:01:01.468Z,7.73
2023-04-19T02:02:01.495Z,7.70
2023-04-19T02:03:01.588Z,7.69
2023-04-19T02:04:01.475Z,7.69
2023-04-19T02:05:01.369Z,7.69
2023-04-19T02:06:01.358Z,7.66
2023-04-19T02:07:01.356Z,7.60
2023-04-19T02:08:01.451Z,7.58
2023-04-19T02:09:01.340Z,7.57
2023-04-19T02:10:01.359Z,7.54
2023-04-19T02:11:01.292Z,7.50
2023-04-19T02:12:01.297Z,7.48
2023-04-19T02:13:01.364Z,7.45
2023-04-19T02:14:01.275Z,7.47
2023-04-19T02:15:01.275Z,7.47
2023-04-19T02:16:01.259Z,7.45
2023-04-19T02:17:01.234Z,7.54
2023-04-19T02:18:01.302Z,7.57
2023-04-19T02:19:01.223Z,7.54
2023-04-19T02:20:01.222Z,7.54
2023-04-19T02:21:01.190Z,7.53
2023-04-19T02:22:01.180Z,7.54
2023-04-19T02:23:01.203Z,7.50
2023-04-19T02:24:01.171Z,7.54
2023-04-19T02:25:01.173Z,7.50
2023-04-19T02:26:01.132Z,7.50
2023-04-19T02:27:01.125Z,7.51
2023-04-19T02:28:01.153Z,7.50
2023-04-19T02:29:01.168Z,7.47
2023-04-19T02:30:01.132Z,7.42
2023-04-19T02:31:01.082Z,7.40
2023-04-19T02:32:01.093Z,7.33
2023-04-19T02:33:01.150Z,7.29
2023-04-19T02:34:01.041Z,7.28
2023-04-19T02:35:01.029Z,7.28
2023-04-19T02:36:01.020Z,7.29
2023-04-19T02:37:01.001Z,7.24
2023-04-19T02:38:01.022Z,7.20
2023-04-19T02:39:00.979Z,7.18
2023-04-19T02:40:00.994Z,7.17
2023-04-19T02:41:00.962Z,7.18
2023-04-19T02:42:00.962Z,7.17
2023-04-19T02:43:00.980Z,7.13
2023-04-19T02:44:00.940Z,7.07
2023-04-19T02:45:00.925Z,7.13
2023-04-19T02:46:00.940Z,7.06
2023-04-19T02:47:00.902Z,6.95
2023-04-19T02:48:00.920Z,6.93
2023-04-19T02:49:00.890Z,6.87
2023-04-19T02:50:00.864Z,6.84
2023-04-19T02:51:00.878Z,6.79
2023-04-19T02:52:00.827Z,6.70
2023-04-19T02:53:00.836Z,6.67
2023-04-19T02:54:00.857Z,6.64
2023-04-19T02:55:00.796Z,6.62
2023-04-19T02:56:00.792Z,6.54
2023-04-19T02:57:00.776Z,6.52
2023-04-19T02:58:00.763Z,6.54
2023-04-19T02:59:00.794Z,6.52
2023-04-19T03:00:00.751Z,6.46
2023-04-19T03:01:00.787Z,6.44
2023-04-19T03:02:00.734Z,6.38
2023-04-19T03:03:00.927Z,6.35
2023-04-19T03:04:00.824Z,6.33
2023-04-19T03:05:00.686Z,6.28
2023-04-19T03:06:00.693Z,6.28
2023-04-19T03:07:00.648Z,6.22
2023-04-19T03:08:00.671Z,6.11
2023-04-19T03:09:00.695Z,5.99
2023-04-19T03:10:00.660Z,5.98
2023-04-19T03:11:00.618Z,6.01
2023-04-19T03:12:00.601Z,5.97
2023-04-19T03:13:00.612Z,6.01
2023-04-19T03:14:00.627Z,6.02
2023-04-19T03:15:00.568Z,6.01
2023-04-19T03:16:00.587Z,5.97
2023-04-19T03:17:00.549Z,5.83
2023-04-19T03:18:00.598Z,5.80
2023-04-19T03:19:00.568Z,5.71
2023-04-19T03:20:00.519Z,5.62
2023-04-19T03:21:00.501Z,5.57
2023-04-19T03:22:00.501Z,5.61
2023-04-19T03:23:00.476Z,5.51
2023-04-19T03:24:00.501Z,5.50
2023-04-19T03:25:00.458Z,5.51
2023-04-19T03:26:00.444Z,5.51
2023-04-19T03:27:00.422Z,5.48
2023-04-19T03:28:00.431Z,5.47
2023-04-19T03:29:00.415Z,5.43
2023-04-19T03:30:00.401Z,5.38
2023-04-19T03:31:00.403Z,5.32
2023-04-19T03:32:00.357Z,5.33
2023-04-19T03:33:00.426Z,5.25
2023-04-19T03:34:00.403Z,5.20
2023-04-19T03:35:00.335Z,5.20
2023-04-19T03:36:00.311Z,5.14
2023-04-19T03:37:00.302Z,5.12
2023-04-19T03:38:00.276Z,5.20
2023-04-19T03:39:00.329Z,5.12
2023-04-19T03:40:00.267Z,5.10
2023-04-19T03:41:00.261Z,5.05
2023-04-19T03:42:00.236Z,5.04
2023-04-19T03:43:00.237Z,4.97
2023-04-19T03:44:00.247Z,4.97
2023-04-19T03:45:00.218Z,4.97
2023-04-19T03:46:00.230Z,5.00
2023-04-19T03:47:00.175Z,4.96
2023-04-19T03:48:02.615Z,4.92
2023-04-19T03:49:00.210Z,4.80
2023-04-19T03:50:00.177Z,4.82
2023-04-19T03:51:00.136Z,4.86
2023-04-19T03:52:00.159Z,4.87
2023-04-19T03:53:00.135Z,4.93
2023-04-19T03:54:00.137Z,4.93
2023-04-19T03:55:00.171Z,4.90
2023-04-19T03:56:00.118Z,4.93
2023-04-19T03:57:00.108Z,4.86
2023-04-19T03:58:00.067Z,4.77
2023-04-19T03:59:00.080Z,4.73
2023-04-19T04:00:00.027Z,4.68
2023-04-19T04:01:00.015Z,4.75
2023-04-19T04:02:00.145Z,4.55
2023-04-19T04:03:00.320Z,4.49
2023-04-19T04:04:02.232Z,4.63
2023-04-19T04:05:00.217Z,4.38
2023-04-19T04:05:59.958Z,4.40
2023-04-19T04:06:59.951Z,4.62
2023-04-19T04:07:59.932Z,4.59
2023-04-19T04:08:59.927Z,4.28
2023-04-19T04:09:59.942Z,4.26
2023-04-19T04:10:59.916Z,4.45
2023-04-19T04:11:59.898Z,4.42
2023-04-19T04:12:59.903Z,4.42
2023-04-19T04:13:59.877Z,4.50
2023-04-19T04:14:59.914Z,4.31
2023-04-19T04:15:59.900Z,4.55
2023-04-19T04:16:59.847Z,4.31
2023-04-19T04:17:59.860Z,4.19
2023-04-19T04:18:59.828Z,4.12
2023-04-19T04:19:59.818Z,4.06
2023-04-19T04:20:59.797Z,4.30
2023-04-19T04:21:59.788Z,4.24
2023-04-19T04:22:59.772Z,4.26
2023-04-19T04:23:59.765Z,4.12
2023-04-19T04:24:59.852Z,4.08
2023-04-19T04:25:59.754Z,4.32
2023-04-19T04:26:59.746Z,4.26
2023-04-19T04:27:59.719Z,4.20
2023-04-19T04:28:59.747Z,4.28
2023-04-19T04:29:59.738Z,4.28
2023-04-19T04:30:59.697Z,4.24
2023-04-19T04:31:59.758Z,4.20
2023-04-19T04:32:59.779Z,4.20
2023-04-19T04:33:59.679Z,4.22
2023-04-19T04:34:59.724Z,4.16
2023-04-19T04:35:59.660Z,4.13
2023-04-19T04:36:59.640Z,4.14
2023-04-19T04:37:59.626Z,4.14
2023-04-19T04:38:59.612Z,4.20
2023-04-19T04:39:59.642Z,4.31
2023-04-19T04:40:59.632Z,4.48
2023-04-19T04:41:59.607Z,4.73
2023-04-19T04:42:59.602Z,5.05
2023-04-19T04:44:12.193Z,5.38
2023-04-19T04:45:00.582Z,5.65
2023-04-19T04:45:59.584Z,5.87
2023-04-19T04:46:59.513Z,6.16
2023-04-19T04:47:59.540Z,6.49
2023-04-19T04:48:59.517Z,6.63
2023-04-19T04:49:59.531Z,6.38
2023-04-19T04:50:59.481Z,6.39
2023-04-19T04:51:59.464Z,6.49
2023-04-19T04:52:59.469Z,6.46
2023-04-19T04:53:59.471Z,6.79
2023-04-19T04:54:59.464Z,7.25
2023-04-19T04:55:59.428Z,7.38
2023-04-19T04:56:59.436Z,7.25
2023-04-19T04:57:59.388Z,7.32
2023-04-19T04:58:59.383Z,7.29
2023-04-19T04:59:59.401Z,6.93
2023-04-19T05:00:59.382Z,6.63
2023-04-19T05:01:59.423Z,6.95
2023-04-19T05:02:59.532Z,7.18
2023-04-19T05:03:59.415Z,7.48
2023-04-19T05:04:59.383Z,7.48
2023-04-19T05:05:59.302Z,7.57
2023-04-19T05:06:59.366Z,7.35
2023-04-19T05:07:59.344Z,6.81
2023-04-19T05:08:59.272Z,7.25
2023-04-19T05:09:59.298Z,7.48
2023-04-19T05:10:59.287Z,7.85
2023-04-19T05:11:59.273Z,7.94
2023-04-19T05:12:59.261Z,7.54
2023-04-19T05:13:59.233Z,7.80
2023-04-19T05:14:59.273Z,7.88
2023-04-19T05:15:59.265Z,8.19
2023-04-19T05:16:59.197Z,8.16
2023-04-19T05:17:59.217Z,8.12
2023-04-19T05:18:59.174Z,8.33
2023-04-19T05:19:59.190Z,8.44
2023-04-19T05:20:59.145Z,8.24
2023-04-19T05:21:59.136Z,8.46
2023-04-19T05:22:59.161Z,8.69
2023-04-19T05:23:59.125Z,9.31
2023-04-19T05:24:59.119Z,9.18
2023-04-19T05:25:59.057Z,8.97
2023-04-19T05:26:59.078Z,8.88
2023-04-19T05:27:59.062Z,8.60
2023-04-19T05:28:59.046Z,8.52
2023-04-19T05:29:59.079Z,8.56
2023-04-19T05:30:59.071Z,8.45
2023-04-19T05:31:59.058Z,8.05
2023-04-19T05:32:59.049Z,8.15
2023-04-19T05:33:58.992Z,8.05
2023-04-19T05:34:59.026Z,8.34
2023-04-19T05:35:58.965Z,7.95
2023-04-19T05:36:58.975Z,8.08
2023-04-19T05:37:58.997Z,8.06
2023-04-19T05:38:58.962Z,8.33
2023-04-19T05:39:58.951Z,8.38
2023-04-19T05:40:58.908Z,8.48
2023-04-19T05:41:58.947Z,8.67
2023-04-19T05:42:58.916Z,9.04
2023-04-19T05:43:58.904Z,9.19
2023-04-19T05:44:58.913Z,9.06
2023-04-19T05:45:58.917Z,8.94
2023-04-19T05:46:58.868Z,8.37
2023-04-19T05:47:58.850Z,8.70
2023-04-19T05:48:58.829Z,8.31
2023-04-19T05:49:58.878Z,8.55
2023-04-19T05:50:58.827Z,8.51
2023-04-19T05:51:58.783Z,8.44
2023-04-19T05:52:58.760Z,8.60
2023-04-19T05:53:58.782Z,8.95
2023-04-19T05:54:58.784Z,9.02
2023-04-19T05:55:58.726Z,8.88
2023-04-19T05:56:58.712Z,9.13
2023-04-19T05:57:58.738Z,9.10
2023-04-19T05:58:58.703Z,9.14
2023-04-19T06:00:59.737Z,8.01
2023-04-19T06:01:58.784Z,8.10
2023-04-19T06:02:58.782Z,8.31
2023-04-19T06:03:58.788Z,8.69
2023-04-19T06:05:02.474Z,8.51
2023-04-19T06:05:59.706Z,8.99
2023-04-19T06:06:58.716Z,9.04
2023-04-19T06:08:02.878Z,8.55
2023-04-19T06:08:58.615Z,8.67
2023-04-19T06:09:58.639Z,8.36
2023-04-19T06:11:02.592Z,8.24
2023-04-19T06:11:59.581Z,8.66
2023-04-19T06:12:58.551Z,8.27
2023-04-19T06:13:58.522Z,8.67
2023-04-19T06:14:58.546Z,8.99
2023-04-19T06:15:58.557Z,8.73
2023-04-19T06:16:58.495Z,8.27
2023-04-19T06:17:59.960Z,8.46
2023-04-19T06:18:58.481Z,8.38
2023-04-19T06:19:58.504Z,8.84
2023-04-19T06:20:58.448Z,9.13
2023-04-19T06:21:58.427Z,9.41
2023-04-19T06:22:58.416Z,9.64
2023-04-19T06:23:58.424Z,9.69
2023-04-19T06:24:58.440Z,8.94
2023-04-19T06:25:58.384Z,9.40
2023-04-19T06:26:58.392Z,8.81
2023-04-19T06:27:58.372Z,9.03
2023-04-19T06:28:58.373Z,9.51
2023-04-19T06:29:58.391Z,10.07
2023-04-19T06:30:58.352Z,9.47
2023-04-19T06:31:58.371Z,9.46
2023-04-19T06:32:58.390Z,9.34
2023-04-19T06:33:58.302Z,9.66
2023-04-19T06:34:58.326Z,9.50
2023-04-19T06:35:58.294Z,9.31
2023-04-19T06:36:58.309Z,9.34
2023-04-19T06:37:58.265Z,9.54
2023-04-19T06:38:58.255Z,9.69
2023-04-19T06:39:58.296Z,9.76
2023-04-19T06:40:58.218Z,9.47
2023-04-19T06:41:58.207Z,9.56
2023-04-19T06:42:58.218Z,9.72
2023-04-19T06:43:58.185Z,9.82
2023-04-19T06:44:58.220Z,9.72
2023-04-19T06:45:58.189Z,9.47
2023-04-19T06:46:58.159Z,9.47
2023-04-19T06:47:58.159Z,9.46
2023-04-19T06:48:58.166Z,9.82
2023-04-19T06:49:58.146Z,9.73
2023-04-19T06:50:58.122Z,9.83
2023-04-19T06:51:58.087Z,10.22
2023-04-19T06:52:58.066Z,10.25
2023-04-19T06:53:58.056Z,10.51
2023-04-19T06:54:58.315Z,10.97
2023-04-19T06:55:58.052Z,11.07
2023-04-19T06:56:58.053Z,11.11
2023-04-19T06:57:58.036Z,10.93
2023-04-19T06:58:58.035Z,11.04
2023-04-19T06:59:58.026Z,10.93
2023-04-19T07:00:58.052Z,10.19
2023-04-19T07:01:58.088Z,10.34
2023-04-19T07:02:58.089Z,10.49
2023-04-19T07:03:58.080Z,10.46
2023-04-19T07:04:57.995Z,10.26
2023-04-19T07:05:57.944Z,10.09
2023-04-19T07:06:57.929Z,10.54
2023-04-19T07:07:58.030Z,10.28
2023-04-19T07:08:57.933Z,10.35
2023-04-19T07:09:57.943Z,10.30
2023-04-19T07:10:57.897Z,9.91
2023-04-19T07:11:57.934Z,10.42
2023-04-19T07:12:57.880Z,10.57
2023-04-19T07:13:57.991Z,10.89
2023-04-19T07:14:57.891Z,10.59
2023-04-19T07:15:57.880Z,10.34
2023-04-19T07:16:57.802Z,10.56
2023-04-19T07:17:57.832Z,11.11
2023-04-19T07:18:57.812Z,11.43
2023-04-19T07:19:57.756Z,11.78
2023-04-19T07:20:57.809Z,11.70
2023-04-19T07:21:57.784Z,11.70
2023-04-19T07:22:57.755Z,10.99
2023-04-19T07:23:57.722Z,10.89
2023-04-19T07:24:57.729Z,11.45
2023-04-19T07:25:57.776Z,12.17
2023-04-19T07:26:57.679Z,12.17
2023-04-19T07:27:57.680Z,12.61
2023-04-19T07:28:57.670Z,13.35
2023-04-19T07:29:57.693Z,14.10
2023-04-19T07:30:57.789Z,14.04
2023-04-19T07:31:57.685Z,13.92
2023-04-19T07:32:57.674Z,12.61
2023-04-19T07:33:57.629Z,12.29
2023-04-19T07:34:57.639Z,12.31
2023-04-19T07:35:57.597Z,11.81
2023-04-19T07:36:57.585Z,10.48
2023-04-19T07:37:57.580Z,10.41
2023-04-19T07:38:57.558Z,10.30
2023-04-19T07:39:57.579Z,10.94
2023-04-19T07:40:57.519Z,10.76
2023-04-19T07:41:57.519Z,11.44
2023-04-19T07:42:57.511Z,12.17
2023-04-19T07:43:57.499Z,12.35
2023-04-19T07:44:57.490Z,12.40
2023-04-19T07:45:57.543Z,12.90
2023-04-19T07:46:57.600Z,13.44
2023-04-19T07:47:57.504Z,11.51
2023-04-19T07:48:57.431Z,11.86
2023-04-19T07:49:57.460Z,12.60
2023-04-19T07:50:58.266Z,13.15
2023-04-19T07:51:57.406Z,13.54
2023-04-19T07:52:57.395Z,11.78
2023-04-19T07:53:57.386Z,12.10
2023-04-19T07:54:57.424Z,11.26
2023-04-19T07:55:57.376Z,11.29
2023-04-19T07:56:57.338Z,10.69
2023-04-19T07:57:57.322Z,10.89
2023-04-19T07:59:07.740Z,10.46
2023-04-19T07:59:58.342Z,10.20
2023-04-19T08:00:57.316Z,10.13
2023-04-19T08:01:57.338Z,9.82
2023-04-19T08:02:57.531Z,9.69
2023-04-19T08:03:57.430Z,9.69
2023-04-19T08:04:57.366Z,10.19
2023-04-19T08:05:57.257Z,11.12
2023-04-19T08:06:57.242Z,11.17
2023-04-19T08:07:57.260Z,11.52
2023-04-19T08:08:57.204Z,12.02
2023-04-19T08:09:57.308Z,11.62
2023-04-19T08:10:57.178Z,10.90
2023-04-19T08:11:57.197Z,10.54
2023-04-19T08:13:04.525Z,10.33
2023-04-19T08:14:06.957Z,9.84
2023-04-19T08:15:06.722Z,10.23
2023-04-19T08:17:22.446Z,10.93
2023-04-19T08:17:58.208Z,10.68
2023-04-19T08:18:57.111Z,10.64
2023-04-19T08:19:57.081Z,10.23
2023-04-19T08:20:57.093Z,10.16
2023-04-19T08:21:57.078Z,10.12
2023-04-19T08:22:59.077Z,9.98
2023-04-19T08:23:57.033Z,9.74
2023-04-19T08:24:57.027Z,9.87
2023-04-19T08:25:57.052Z,10.12
2023-04-19T08:26:59.426Z,10.35
2023-04-19T08:27:56.992Z,10.57
2023-04-19T08:28:57.002Z,10.53
2023-04-19T08:29:56.967Z,10.60
2023-04-19T08:30:57.016Z,10.64
2023-04-19T08:31:56.989Z,10.74
2023-04-19T08:32:57.457Z,11.30
2023-04-19T08:33:56.943Z,10.99
2023-04-19T08:34:56.917Z,10.41
2023-04-19T08:35:56.927Z,10.41
2023-04-19T08:37:03.813Z,10.37
2023-04-19T08:37:57.882Z,10.17
2023-04-19T08:39:24.871Z,9.91
2023-04-19T08:39:57.852Z,10.07
2023-04-19T08:40:56.860Z,10.61
2023-04-19T08:42:06.997Z,11.26
2023-04-19T08:42:57.778Z,11.11
2023-04-19T08:43:56.808Z,11.62
2023-04-19T08:45:13.598Z,11.23
2023-04-19T08:45:57.812Z,10.87
2023-04-19T08:46:56.759Z,10.49
2023-04-19T08:48:00.780Z,10.51
2023-04-19T08:48:56.777Z,10.40
2023-04-19T08:50:07.081Z,10.17
2023-04-19T08:51:04.929Z,10.09
2023-04-19T08:51:57.727Z,9.89
2023-04-19T08:53:00.844Z,9.83
2023-04-19T08:53:57.695Z,9.76
2023-04-19T08:54:56.678Z,10.05
2023-04-19T08:56:10.596Z,10.01
2023-04-19T08:56:57.650Z,10.01
2023-04-19T08:57:56.673Z,9.98
2023-04-19T08:59:11.574Z,9.84
2023-04-19T08:59:57.605Z,9.82
2023-04-19T09:00:56.648Z,9.86
2023-04-19T09:01:56.723Z,9.83
2023-04-19T09:02:56.899Z,9.86
2023-04-19T09:04:07.138Z,9.68
2023-04-19T09:04:57.801Z,9.62
2023-04-19T09:05:56.737Z,9.56
2023-04-19T09:06:56.552Z,9.56
2023-04-19T09:07:56.560Z,9.58
2023-04-19T09:08:56.517Z,10.04
2023-04-19T09:10:02.871Z,10.15
2023-04-19T09:10:57.534Z,11.29
2023-04-19T09:11:56.504Z,11.84
2023-04-19T09:12:56.464Z,11.75
2023-04-19T09:13:56.454Z,12.04
2023-04-19T09:15:01.991Z,11.43
2023-04-19T09:15:57.512Z,12.46
2023-04-19T09:16:56.441Z,12.94
2023-04-19T09:17:56.460Z,13.00
2023-04-19T09:19:08.249Z,13.35
2023-04-19T09:19:57.393Z,13.57
2023-04-19T09:20:56.404Z,13.44
2023-04-19T09:21:56.559Z,14.03
2023-04-19T09:22:56.350Z,14.28
2023-04-19T09:23:56.356Z,14.07
2023-04-19T09:26:19.366Z,13.09
2023-04-19T09:26:57.299Z,11.72
2023-04-19T09:27:56.295Z,11.27
2023-04-19T09:28:56.298Z,11.52
2023-04-19T09:29:56.273Z,11.73
2023-04-19T09:31:06.764Z,11.66
2023-04-19T09:31:57.363Z,11.22
2023-04-19T09:32:56.307Z,11.18
2023-04-19T09:33:56.220Z,11.30
2023-04-19T09:34:56.232Z,11.65
2023-04-19T09:35:56.222Z,12.07
2023-04-19T09:37:04.713Z,11.59
2023-04-19T09:38:04.774Z,11.41
2023-04-19T09:38:57.158Z,11.48
2023-04-19T09:39:56.160Z,11.19
2023-04-19T09:40:56.184Z,11.15
2023-04-19T09:41:56.156Z,11.30
2023-04-19T09:44:08.943Z,11.41
2023-04-19T09:45:27.710Z,11.32
2023-04-19T09:45:57.103Z,11.43
2023-04-19T09:46:56.126Z,11.43
2023-04-19T09:47:56.112Z,11.60
2023-04-19T09:48:56.084Z,12.24
2023-04-19T09:49:56.047Z,12.57
2023-04-19T09:51:00.913Z,13.03
2023-04-19T09:51:57.038Z,13.39
2023-04-19T09:52:55.997Z,12.98
2023-04-19T09:53:56.015Z,13.04
2023-04-19T09:54:56.002Z,12.79
2023-04-19T09:56:01.546Z,12.57
2023-04-19T09:56:58.395Z,12.40
2023-04-19T09:57:55.948Z,12.35
2023-04-19T09:59:01.603Z,12.25
2023-04-19T09:59:56.918Z,11.84
2023-04-19T10:01:06.640Z,11.26
2023-04-19T10:01:56.973Z,10.79
2023-04-19T10:02:56.070Z,10.59
2023-04-19T10:03:56.221Z,10.64
2023-04-19T10:05:15.800Z,10.54
2023-04-19T10:05:57.349Z,10.71
2023-04-19T10:07:19.489Z,10.87
2023-04-19T10:07:59.876Z,10.93
2023-04-19T10:08:55.842Z,10.81
2023-04-19T10:09:59.894Z,10.68
2023-04-19T10:10:56.819Z,10.86
2023-04-19T10:12:03.148Z,11.07
2023-04-19T10:13:55.757Z,11.27
2023-04-19T10:14:55.745Z,11.51
2023-04-19T10:16:01.841Z,11.55
2023-04-19T10:16:56.783Z,11.33
2023-04-19T10:17:55.785Z,11.12
2023-04-19T10:18:55.717Z,11.27
2023-04-19T10:19:55.715Z,11.37
2023-04-19T10:20:55.700Z,11.62
2023-04-19T10:21:55.719Z,11.70
2023-04-19T10:22:55.695Z,11.83
2023-04-19T10:23:55.651Z,11.99
2023-04-19T10:24:55.652Z,11.95
2023-04-19T10:25:55.631Z,11.97
2023-04-19T10:26:55.675Z,12.12
2023-04-19T10:27:55.670Z,12.47
2023-04-19T10:28:55.594Z,12.64
2023-04-19T10:29:55.602Z,12.49
2023-04-19T10:30:55.594Z,12.02
2023-04-19T10:31:55.704Z,12.06
2023-04-19T10:32:55.587Z,12.45
2023-04-19T10:33:55.574Z,12.83
2023-04-19T10:34:55.538Z,12.85
2023-04-19T10:35:55.511Z,13.01
2023-04-19T10:36:55.537Z,13.23
2023-04-19T10:37:55.501Z,12.54
2023-04-19T10:38:55.543Z,12.28
2023-04-19T10:39:55.506Z,12.31
2023-04-19T10:40:55.452Z,12.22
2023-04-19T10:41:55.473Z,12.15
2023-04-19T10:42:55.391Z,12.70
2023-04-19T10:43:55.443Z,13.19
2023-04-19T10:44:55.400Z,13.00
2023-04-19T10:45:55.450Z,13.01
2023-04-19T10:46:55.415Z,13.08
2023-04-19T10:47:55.433Z,12.87
2023-04-19T10:48:55.390Z,12.79
2023-04-19T10:49:55.349Z,12.65
2023-04-19T10:50:55.328Z,12.86
2023-04-19T10:51:55.377Z,12.82
2023-04-19T10:52:55.307Z,12.61
2023-04-19T10:53:55.355Z,12.60
2023-04-19T10:54:55.275Z,12.57
2023-04-19T10:55:55.280Z,12.55
2023-04-19T10:56:55.327Z,12.50
2023-04-19T10:57:55.244Z,12.22
2023-04-19T10:58:55.233Z,11.86
2023-04-19T10:59:55.220Z,12.50
2023-04-19T11:00:55.224Z,13.04
2023-04-19T11:01:55.375Z,13.72
2023-04-19T11:02:55.315Z,14.48
2023-04-19T11:03:55.516Z,14.55
2023-04-19T11:04:55.164Z,15.36
2023-04-19T11:05:55.172Z,15.62
2023-04-19T11:06:55.190Z,15.02
2023-04-19T11:07:55.187Z,14.00
2023-04-19T11:08:55.129Z,12.93
2023-04-19T11:09:55.133Z,12.29
2023-04-19T11:10:55.100Z,12.36
2023-04-19T11:11:55.107Z,12.60
2023-04-19T11:12:55.057Z,12.70
2023-04-19T11:13:55.090Z,12.46
2023-04-19T11:14:55.067Z,11.88
2023-04-19T11:15:55.076Z,11.69
2023-04-19T11:16:55.107Z,11.41
2023-04-19T11:18:04.682Z,11.62
2023-04-19T11:18:56.010Z,11.80
2023-04-19T11:19:55.011Z,11.73
2023-04-19T11:20:54.981Z,11.97
2023-04-19T11:21:55.006Z,12.18
2023-04-19T11:22:55.000Z,12.40
2023-04-19T11:23:54.958Z,12.49
2023-04-19T11:24:54.963Z,12.25
2023-04-19T11:25:54.944Z,12.04
2023-04-19T11:26:55.677Z,11.88
2023-04-19T11:27:54.908Z,11.75
2023-04-19T11:28:54.914Z,11.87
2023-04-19T11:29:54.940Z,11.68
2023-04-19T11:30:54.898Z,11.57
2023-04-19T11:31:54.909Z,11.51
2023-04-19T11:32:54.887Z,11.50
2023-04-19T11:33:54.854Z,11.60
2023-04-19T11:34:54.842Z,11.70
2023-04-19T11:35:54.814Z,11.69
2023-04-19T11:36:54.821Z,11.62
2023-04-19T11:37:54.860Z,11.48
2023-04-19T11:38:54.774Z,11.62
2023-04-19T11:39:54.760Z,11.72
2023-04-19T11:40:54.724Z,11.75
2023-04-19T11:41:54.778Z,12.00
2023-04-19T11:42:54.777Z,12.06
2023-04-19T11:43:54.757Z,12.35
2023-04-19T11:44:54.700Z,12.13
2023-04-19T11:45:54.741Z,12.22
2023-04-19T11:46:54.756Z,12.22
2023-04-19T11:47:54.757Z,11.99
2023-04-19T11:48:54.753Z,11.77
2023-04-19T11:49:54.683Z,11.55
2023-04-19T11:50:54.667Z,11.23
2023-04-19T11:51:54.651Z,11.10
2023-04-19T11:52:54.683Z,11.10
2023-04-19T11:53:54.639Z,11.10
2023-04-19T11:54:54.577Z,11.11
2023-04-19T11:55:54.667Z,10.92
2023-04-19T11:56:54.576Z,10.89
2023-04-19T11:57:54.602Z,10.78
2023-04-19T11:58:54.567Z,10.79
2023-04-19T11:59:54.540Z,10.78
2023-04-19T12:00:54.561Z,10.71
2023-04-19T12:01:54.511Z,10.57
2023-04-19T12:02:54.690Z,10.38
2023-04-19T12:03:54.672Z,10.28
2023-04-19T12:04:54.712Z,10.05
2023-04-19T12:05:54.570Z,9.82
2023-04-19T12:06:54.476Z,9.50
2023-04-19T12:07:54.481Z,9.31
2023-04-19T12:08:54.420Z,9.23
2023-04-19T12:09:54.400Z,9.16
2023-04-19T12:10:54.414Z,9.13
2023-04-19T12:11:54.410Z,9.13
2023-04-19T12:12:54.452Z,9.18
2023-04-19T12:13:54.371Z,9.16
2023-04-19T12:14:54.367Z,9.08
2023-04-19T12:15:54.352Z,8.99
2023-04-19T12:16:54.427Z,9.00
2023-04-19T12:17:57.451Z,8.99
2023-04-19T12:18:54.329Z,8.91
2023-04-19T12:19:54.282Z,8.84
2023-04-19T12:20:55.250Z,8.70
2023-04-19T12:21:54.278Z,8.64
2023-04-19T12:22:54.274Z,8.49
2023-04-19T12:23:54.285Z,8.45
2023-04-19T12:24:54.266Z,8.38
2023-04-19T12:25:54.255Z,8.28
2023-04-19T12:26:55.992Z,8.20
2023-04-19T12:27:54.206Z,8.31
2023-04-19T12:28:54.246Z,8.36
2023-04-19T12:29:54.185Z,8.48
2023-04-19T12:30:54.198Z,8.45
2023-04-19T12:31:54.286Z,8.49
2023-04-19T12:32:54.213Z,8.46
2023-04-19T12:33:54.183Z,8.42
2023-04-19T12:34:54.116Z,8.38
2023-04-19T12:35:54.127Z,8.45
2023-04-19T12:36:54.111Z,8.37
2023-04-19T12:37:54.107Z,8.45
2023-04-19T12:38:54.122Z,8.58
2023-04-19T12:39:56.283Z,8.53
2023-04-19T12:40:54.073Z,8.60
2023-04-19T12:41:54.056Z,8.60
2023-04-19T12:42:54.046Z,8.63
2023-04-19T12:43:54.082Z,8.63
2023-04-19T12:44:54.052Z,8.61
2023-04-19T12:45:54.068Z,8.55
2023-04-19T12:46:53.988Z,8.58
2023-04-19T12:47:54.052Z,8.71
2023-04-19T12:48:54.011Z,8.70
2023-04-19T12:49:53.950Z,8.70
2023-04-19T12:50:53.971Z,8.67
2023-04-19T12:51:55.822Z,8.58
2023-04-19T12:52:53.936Z,8.61
2023-04-19T12:53:53.989Z,8.55
2023-04-19T12:54:53.906Z,8.52
2023-04-19T12:55:53.881Z,8.34
2023-04-19T12:56:53.889Z,8.16
2023-04-19T12:57:53.899Z,8.15
2023-04-19T12:58:53.930Z,8.08
2023-04-19T12:59:53.845Z,8.00
2023-04-19T13:00:53.827Z,7.85
2023-04-19T13:01:53.929Z,7.73
2023-04-19T13:02:53.947Z,7.61
2023-04-19T13:03:56.239Z,7.58
2023-04-19T13:04:53.890Z,7.50
2023-04-19T13:05:53.775Z,7.45
2023-04-19T13:06:53.746Z,7.47
2023-04-19T13:07:53.741Z,7.45
2023-04-19T13:08:55.039Z,7.47
2023-04-19T13:09:55.418Z,7.40
2023-04-19T13:10:53.719Z,7.36
2023-04-19T13:11:53.719Z,7.35
2023-04-19T13:12:53.710Z,7.36